sensor_id;sensor_type;location;lat;lon;timestamp;temperature;humidity
23609;DHT22;11982;50.810;4.442;2023-04-24T00:00:05;9.00;99.90
23609;DHT22;11982;50.810;4.442;2023-04-24T00:02:32;9.00;99.90
23609;DHT22;11982;50.810;4.442;2023-04-24T00:04:58;9.00;99.90
23609;DHT22;11982;50.810;4.442;2023-04-24T00:07:28;9.00;99.90
23609;DHT22;11982;50.810;4.442;2023-04-24T00:09:54;8.90;99.90
23609;DHT22;11982;50.810;4.442;2023-04-24T00:12:20;8.90;99.90
23609;DHT22;11982;50.810;4.442;2023-04-24T00:14:46;8.90;99.90
23609;DHT22;11982;50.810;4.442;2023-04-24T00:17:11;8.90;99.90
23609;DHT22;11982;50.810;4.442;2023-04-24T00:19:37;8.80;99.90
23609;DHT22;11982;50.810;4.442;2023-04-24T00:22:03;8.80;99.90
23609;DHT22;11982;50.810;4.442;2023-04-24T00:24:29;8.80;99.90
23609;DHT22;11982;50.810;4.442;2023-04-24T00:26:54;8.80;99.90
23609;DHT22;11982;50.810;4.442;2023-04-24T00:29:20;8.80;99.90
23609;DHT22;11982;50.810;4.442;2023-04-24T00:31:46;8.80;99.90
23609;DHT22;11982;50.810;4.442;2023-04-24T00:34:11;8.70;99.90
23609;DHT22;11982;50.810;4.442;2023-04-24T00:36:37;8.70;99.90
23609;DHT22;11982;50.810;4.442;2023-04-24T00:39:03;8.70;99.90
23609;DHT22;11982;50.810;4.442;2023-04-24T00:41:29;8.70;99.90
23609;DHT22;11982;50.810;4.442;2023-04-24T00:43:55;8.70;99.90
23609;DHT22;11982;50.810;4.442;2023-04-24T00:46:21;8.70;99.90
23609;DHT22;11982;50.810;4.442;2023-04-24T00:48:47;8.80;99.90
23609;DHT22;11982;50.810;4.442;2023-04-24T00:51:12;8.70;99.90
23609;DHT22;11982;50.810;4.442;2023-04-24T00:53:38;8.80;99.90
23609;DHT22;11982;50.810;4.442;2023-04-24T00:56:04;8.70;99.90
23609;DHT22;11982;50.810;4.442;2023-04-24T00:58:31;8.80;99.90
23609;DHT22;11982;50.810;4.442;2023-04-24T01:00:58;8.80;99.90
23609;DHT22;11982;50.810;4.442;2023-04-24T01:03:28;8.80;99.90
23609;DHT22;11982;50.810;4.442;2023-04-24T01:05:55;8.80;99.90
23609;DHT22;11982;50.810;4.442;2023-04-24T01:08:24;8.80;99.90
23609;DHT22;11982;50.810;4.442;2023-04-24T01:10:53;8.80;99.90
23609;DHT22;11982;50.810;4.442;2023-04-24T01:13:19;8.80;99.90
23609;DHT22;11982;50.810;4.442;2023-04-24T01:15:46;8.70;99.90
23609;DHT22;11982;50.810;4.442;2023-04-24T01:18:12;8.70;99.90
23609;DHT22;11982;50.810;4.442;2023-04-24T01:20:40;8.60;99.90
23609;DHT22;11982;50.810;4.442;2023-04-24T01:23:07;8.60;99.90
23609;DHT22;11982;50.810;4.442;2023-04-24T01:25:33;8.50;99.90
23609;DHT22;11982;50.810;4.442;2023-04-24T01:27:59;8.50;99.90
23609;DHT22;11982;50.810;4.442;2023-04-24T01:30:28;8.40;99.90
23609;DHT22;11982;50.810;4.442;2023-04-24T01:32:55;8.30;99.90
23609;DHT22;11982;50.810;4.442;2023-04-24T01:35:21;8.20;99.90
23609;DHT22;11982;50.810;4.442;2023-04-24T01:37:47;8.20;99.90
23609;DHT22;11982;50.810;4.442;2023-04-24T01:40:13;8.10;99.90
23609;DHT22;11982;50.810;4.442;2023-04-24T01:42:39;8.10;99.90
23609;DHT22;11982;50.810;4.442;2023-04-24T01:45:06;8.10;99.90
23609;DHT22;11982;50.810;4.442;2023-04-24T01:47:33;8.00;99.90
23609;DHT22;11982;50.810;4.442;2023-04-24T01:49:59;8.00;99.90
23609;DHT22;11982;50.810;4.442;2023-04-24T01:52:25;8.10;99.90
23609;DHT22;11982;50.810;4.442;2023-04-24T01:54:52;8.10;99.90
23609;DHT22;11982;50.810;4.442;2023-04-24T01:57:18;8.10;99.90
23609;DHT22;11982;50.810;4.442;2023-04-24T01:59:43;8.10;99.90
23609;DHT22;11982;50.810;4.442;2023-04-24T02:02:09;8.10;99.90
23609;DHT22;11982;50.810;4.442;2023-04-24T02:04:35;8.10;99.90
23609;DHT22;11982;50.810;4.442;2023-04-24T02:07:00;8.10;99.90
23609;DHT22;11982;50.810;4.442;2023-04-24T02:09:26;8.00;99.90
23609;DHT22;11982;50.810;4.442;2023-04-24T02:11:52;8.00;99.90
23609;DHT22;11982;50.810;4.442;2023-04-24T02:14:17;8.00;99.90
23609;DHT22;11982;50.810;4.442;2023-04-24T02:16:43;8.00;99.90
23609;DHT22;11982;50.810;4.442;2023-04-24T02:19:09;8.10;99.90
23609;DHT22;11982;50.810;4.442;2023-04-24T02:21:35;8.10;99.90
23609;DHT22;11982;50.810;4.442;2023-04-24T02:24:01;8.10;99.90
23609;DHT22;11982;50.810;4.442;2023-04-24T02:26:27;8.10;99.90
23609;DHT22;11982;50.810;4.442;2023-04-24T02:28:52;8.10;99.90
23609;DHT22;11982;50.810;4.442;2023-04-24T02:31:18;8.10;99.90
23609;DHT22;11982;50.810;4.442;2023-04-24T02:33:44;8.00;99.90
23609;DHT22;11982;50.810;4.442;2023-04-24T02:36:09;8.00;99.90
23609;DHT22;11982;50.810;4.442;2023-04-24T02:38:35;8.00;99.90
23609;DHT22;11982;50.810;4.442;2023-04-24T02:41:01;8.00;99.90
23609;DHT22;11982;50.810;4.442;2023-04-24T02:43:27;8.00;99.90
23609;DHT22;11982;50.810;4.442;2023-04-24T02:45:53;8.00;99.90
23609;DHT22;11982;50.810;4.442;2023-04-24T02:48:19;8.00;99.90
23609;DHT22;11982;50.810;4.442;2023-04-24T02:50:46;8.00;99.90
23609;DHT22;11982;50.810;4.442;2023-04-24T02:53:12;8.10;99.90
23609;DHT22;11982;50.810;4.442;2023-04-24T02:55:37;8.00;99.90
23609;DHT22;11982;50.810;4.442;2023-04-24T02:58:03;8.00;99.90
23609;DHT22;11982;50.810;4.442;2023-04-24T03:00:29;8.00;99.90
23609;DHT22;11982;50.810;4.442;2023-04-24T03:02:55;8.00;99.90
23609;DHT22;11982;50.810;4.442;2023-04-24T03:05:21;8.00;99.90
23609;DHT22;11982;50.810;4.442;2023-04-24T03:07:47;8.00;99.90
23609;DHT22;11982;50.810;4.442;2023-04-24T03:10:13;8.00;99.90
23609;DHT22;11982;50.810;4.442;2023-04-24T03:12:38;8.00;99.90
23609;DHT22;11982;50.810;4.442;2023-04-24T03:15:04;8.00;99.90
23609;DHT22;11982;50.810;4.442;2023-04-24T03:17:30;8.00;99.90
23609;DHT22;11982;50.810;4.442;2023-04-24T03:19:56;8.00;99.90
23609;DHT22;11982;50.810;4.442;2023-04-24T03:22:21;8.00;99.90
23609;DHT22;11982;50.810;4.442;2023-04-24T03:24:47;8.00;99.90
23609;DHT22;11982;50.810;4.442;2023-04-24T03:27:13;8.00;99.90
23609;DHT22;11982;50.810;4.442;2023-04-24T03:29:38;8.00;99.90
23609;DHT22;11982;50.810;4.442;2023-04-24T03:32:04;8.00;99.90
23609;DHT22;11982;50.810;4.442;2023-04-24T03:34:30;8.00;99.90
23609;DHT22;11982;50.810;4.442;2023-04-24T03:36:55;8.00;99.90
23609;DHT22;11982;50.810;4.442;2023-04-24T03:39:21;8.00;99.90
23609;DHT22;11982;50.810;4.442;2023-04-24T03:41:46;7.90;99.90
23609;DHT22;11982;50.810;4.442;2023-04-24T03:44:12;7.90;99.90
23609;DHT22;11982;50.810;4.442;2023-04-24T03:46:38;8.00;99.90
23609;DHT22;11982;50.810;4.442;2023-04-24T03:49:03;7.90;99.90
23609;DHT22;11982;50.810;4.442;2023-04-24T03:51:29;7.90;99.90
23609;DHT22;11982;50.810;4.442;2023-04-24T03:53:56;8.00;99.90
23609;DHT22;11982;50.810;4.442;2023-04-24T03:56:21;7.90;99.90
23609;DHT22;11982;50.810;4.442;2023-04-24T03:58:47;8.00;99.90
23609;DHT22;11982;50.810;4.442;2023-04-24T04:01:13;8.00;99.90
23609;DHT22;11982;50.810;4.442;2023-04-24T04:03:41;8.00;99.90
23609;DHT22;11982;50.810;4.442;2023-04-24T04:06:07;8.00;99.90
23609;DHT22;11982;50.810;4.442;2023-04-24T04:08:33;8.00;99.90
23609;DHT22;11982;50.810;4.442;2023-04-24T04:10:58;8.10;99.90
23609;DHT22;11982;50.810;4.442;2023-04-24T04:13:24;8.10;99.90
23609;DHT22;11982;50.810;4.442;2023-04-24T04:15:49;8.10;99.90
23609;DHT22;11982;50.810;4.442;2023-04-24T04:18:15;8.10;99.90
23609;DHT22;11982;50.810;4.442;2023-04-24T04:20:41;8.20;99.90
23609;DHT22;11982;50.810;4.442;2023-04-24T04:23:07;8.20;99.90
23609;DHT22;11982;50.810;4.442;2023-04-24T04:25:32;8.20;99.90
23609;DHT22;11982;50.810;4.442;2023-04-24T04:27:58;8.10;99.90
23609;DHT22;11982;50.810;4.442;2023-04-24T04:30:25;8.20;99.90
23609;DHT22;11982;50.810;4.442;2023-04-24T04:32:51;8.20;99.90
23609;DHT22;11982;50.810;4.442;2023-04-24T04:35:17;8.20;99.90
23609;DHT22;11982;50.810;4.442;2023-04-24T04:37:42;8.20;99.90
23609;DHT22;11982;50.810;4.442;2023-04-24T04:40:08;8.20;99.90
23609;DHT22;11982;50.810;4.442;2023-04-24T04:42:40;8.20;99.90
23609;DHT22;11982;50.810;4.442;2023-04-24T04:45:07;8.20;99.90
23609;DHT22;11982;50.810;4.442;2023-04-24T04:47:34;8.20;99.90
23609;DHT22;11982;50.810;4.442;2023-04-24T04:50:00;8.20;99.90
23609;DHT22;11982;50.810;4.442;2023-04-24T04:52:26;8.20;99.90
23609;DHT22;11982;50.810;4.442;2023-04-24T04:54:52;8.20;99.90
23609;DHT22;11982;50.810;4.442;2023-04-24T04:57:18;8.20;99.90
23609;DHT22;11982;50.810;4.442;2023-04-24T04:59:44;8.20;99.90
23609;DHT22;11982;50.810;4.442;2023-04-24T05:02:10;8.10;99.90
23609;DHT22;11982;50.810;4.442;2023-04-24T05:04:35;8.10;99.90
23609;DHT22;11982;50.810;4.442;2023-04-24T05:07:01;8.10;99.90
23609;DHT22;11982;50.810;4.442;2023-04-24T05:09:27;8.10;99.90
23609;DHT22;11982;50.810;4.442;2023-04-24T05:11:55;8.10;99.90
23609;DHT22;11982;50.810;4.442;2023-04-24T05:14:20;8.20;99.90
23609;DHT22;11982;50.810;4.442;2023-04-24T05:16:47;8.20;99.90
23609;DHT22;11982;50.810;4.442;2023-04-24T05:19:13;8.10;99.90
23609;DHT22;11982;50.810;4.442;2023-04-24T05:21:40;8.10;99.90
23609;DHT22;11982;50.810;4.442;2023-04-24T05:24:06;8.10;99.90
23609;DHT22;11982;50.810;4.442;2023-04-24T05:26:32;8.10;99.90
23609;DHT22;11982;50.810;4.442;2023-04-24T05:28:58;8.10;99.90
23609;DHT22;11982;50.810;4.442;2023-04-24T05:31:23;8.10;99.90
23609;DHT22;11982;50.810;4.442;2023-04-24T05:33:49;8.00;99.90
23609;DHT22;11982;50.810;4.442;2023-04-24T05:36:15;7.90;99.90
23609;DHT22;11982;50.810;4.442;2023-04-24T05:38:40;8.00;99.90
23609;DHT22;11982;50.810;4.442;2023-04-24T05:41:06;8.00;99.90
23609;DHT22;11982;50.810;4.442;2023-04-24T05:43:32;8.00;99.90
23609;DHT22;11982;50.810;4.442;2023-04-24T05:45:57;8.10;99.90
23609;DHT22;11982;50.810;4.442;2023-04-24T05:48:23;8.00;99.90
23609;DHT22;11982;50.810;4.442;2023-04-24T05:50:49;8.10;99.90
23609;DHT22;11982;50.810;4.442;2023-04-24T05:53:15;8.00;99.90
23609;DHT22;11982;50.810;4.442;2023-04-24T05:55:41;8.00;99.90
23609;DHT22;11982;50.810;4.442;2023-04-24T05:58:06;8.00;99.90
23609;DHT22;11982;50.810;4.442;2023-04-24T06:00:32;7.90;99.90
23609;DHT22;11982;50.810;4.442;2023-04-24T06:02:59;8.00;99.90
23609;DHT22;11982;50.810;4.442;2023-04-24T06:05:25;7.90;99.90
23609;DHT22;11982;50.810;4.442;2023-04-24T06:07:51;7.90;99.90
23609;DHT22;11982;50.810;4.442;2023-04-24T06:10:17;7.90;99.90
23609;DHT22;11982;50.810;4.442;2023-04-24T06:12:43;7.90;99.90
23609;DHT22;11982;50.810;4.442;2023-04-24T06:15:09;7.90;99.90
23609;DHT22;11982;50.810;4.442;2023-04-24T06:17:34;7.90;99.90
23609;DHT22;11982;50.810;4.442;2023-04-24T06:20:00;7.90;99.90
23609;DHT22;11982;50.810;4.442;2023-04-24T06:22:26;7.90;99.90
23609;DHT22;11982;50.810;4.442;2023-04-24T06:24:51;7.90;99.90
23609;DHT22;11982;50.810;4.442;2023-04-24T06:27:17;7.80;99.90
23609;DHT22;11982;50.810;4.442;2023-04-24T06:29:43;7.90;99.90
23609;DHT22;11982;50.810;4.442;2023-04-24T06:32:09;7.90;99.90
23609;DHT22;11982;50.810;4.442;2023-04-24T06:34:34;7.90;99.90
23609;DHT22;11982;50.810;4.442;2023-04-24T06:37:00;7.90;99.90
23609;DHT22;11982;50.810;4.442;2023-04-24T06:39:26;7.90;99.90
23609;DHT22;11982;50.810;4.442;2023-04-24T06:41:52;7.90;99.90
23609;DHT22;11982;50.810;4.442;2023-04-24T06:44:17;7.90;99.90
23609;DHT22;11982;50.810;4.442;2023-04-24T06:46:43;7.90;99.90
23609;DHT22;11982;50.810;4.442;2023-04-24T06:49:09;7.90;99.90
23609;DHT22;11982;50.810;4.442;2023-04-24T06:51:35;7.90;99.90
23609;DHT22;11982;50.810;4.442;2023-04-24T06:54:00;7.90;99.90
23609;DHT22;11982;50.810;4.442;2023-04-24T06:56:27;8.00;99.90
23609;DHT22;11982;50.810;4.442;2023-04-24T06:58:54;8.10;99.90
23609;DHT22;11982;50.810;4.442;2023-04-24T07:01:20;8.10;99.90
23609;DHT22;11982;50.810;4.442;2023-04-24T07:03:46;8.10;99.90
23609;DHT22;11982;50.810;4.442;2023-04-24T07:06:17;8.20;99.90
23609;DHT22;11982;50.810;4.442;2023-04-24T07:08:46;8.20;99.90
23609;DHT22;11982;50.810;4.442;2023-04-24T07:11:12;8.30;99.90
23609;DHT22;11982;50.810;4.442;2023-04-24T07:13:38;8.30;99.90
23609;DHT22;11982;50.810;4.442;2023-04-24T07:16:07;8.30;99.90
23609;DHT22;11982;50.810;4.442;2023-04-24T07:18:33;8.30;99.90
23609;DHT22;11982;50.810;4.442;2023-04-24T07:20:59;8.30;99.90
23609;DHT22;11982;50.810;4.442;2023-04-24T07:23:25;8.30;99.90
23609;DHT22;11982;50.810;4.442;2023-04-24T07:25:50;8.40;99.90
23609;DHT22;11982;50.810;4.442;2023-04-24T07:28:16;8.50;99.90
23609;DHT22;11982;50.810;4.442;2023-04-24T07:30:43;8.50;99.90
23609;DHT22;11982;50.810;4.442;2023-04-24T07:33:09;8.70;99.90
23609;DHT22;11982;50.810;4.442;2023-04-24T07:35:36;8.80;99.90
23609;DHT22;11982;50.810;4.442;2023-04-24T07:38:02;8.80;99.90
23609;DHT22;11982;50.810;4.442;2023-04-24T07:40:28;8.80;99.90
23609;DHT22;11982;50.810;4.442;2023-04-24T07:42:53;8.80;99.90
23609;DHT22;11982;50.810;4.442;2023-04-24T07:45:19;9.00;99.90
23609;DHT22;11982;50.810;4.442;2023-04-24T07:47:44;9.10;99.90
23609;DHT22;11982;50.810;4.442;2023-04-24T07:50:11;9.20;99.90
23609;DHT22;11982;50.810;4.442;2023-04-24T07:52:38;9.10;99.90
23609;DHT22;11982;50.810;4.442;2023-04-24T07:55:04;9.10;99.90
23609;DHT22;11982;50.810;4.442;2023-04-24T07:57:30;9.20;99.90
23609;DHT22;11982;50.810;4.442;2023-04-24T07:59:56;9.00;99.90
23609;DHT22;11982;50.810;4.442;2023-04-24T08:02:22;9.00;99.90
23609;DHT22;11982;50.810;4.442;2023-04-24T08:04:52;9.00;99.90
23609;DHT22;11982;50.810;4.442;2023-04-24T08:07:19;9.00;99.90
23609;DHT22;11982;50.810;4.442;2023-04-24T08:09:45;9.10;99.90
23609;DHT22;11982;50.810;4.442;2023-04-24T08:12:10;9.10;99.90
23609;DHT22;11982;50.810;4.442;2023-04-24T08:14:36;9.00;99.90
23609;DHT22;11982;50.810;4.442;2023-04-24T08:17:02;9.00;99.90
23609;DHT22;11982;50.810;4.442;2023-04-24T08:19:28;9.00;99.90
23609;DHT22;11982;50.810;4.442;2023-04-24T08:21:54;9.10;99.90
23609;DHT22;11982;50.810;4.442;2023-04-24T08:24:20;9.10;99.90
23609;DHT22;11982;50.810;4.442;2023-04-24T08:26:46;9.30;99.90
23609;DHT22;11982;50.810;4.442;2023-04-24T08:29:12;9.50;99.90
23609;DHT22;11982;50.810;4.442;2023-04-24T08:31:38;9.50;99.90
23609;DHT22;11982;50.810;4.442;2023-04-24T08:34:04;9.80;99.90
23609;DHT22;11982;50.810;4.442;2023-04-24T08:36:30;9.70;99.90
23609;DHT22;11982;50.810;4.442;2023-04-24T08:38:56;9.80;99.90
23609;DHT22;11982;50.810;4.442;2023-04-24T08:41:21;10.00;99.90
23609;DHT22;11982;50.810;4.442;2023-04-24T08:43:50;9.90;99.90
23609;DHT22;11982;50.810;4.442;2023-04-24T08:46:16;10.00;99.90
23609;DHT22;11982;50.810;4.442;2023-04-24T08:48:44;10.00;99.90
23609;DHT22;11982;50.810;4.442;2023-04-24T08:51:10;9.80;99.90
23609;DHT22;11982;50.810;4.442;2023-04-24T08:53:37;10.00;99.90
23609;DHT22;11982;50.810;4.442;2023-04-24T08:56:03;10.10;99.90
23609;DHT22;11982;50.810;4.442;2023-04-24T08:58:29;10.20;99.90
23609;DHT22;11982;50.810;4.442;2023-04-24T09:00:57;10.40;99.90
23609;DHT22;11982;50.810;4.442;2023-04-24T09:03:23;10.50;99.90
23609;DHT22;11982;50.810;4.442;2023-04-24T09:05:50;10.70;99.90
23609;DHT22;11982;50.810;4.442;2023-04-24T09:08:19;10.70;99.90
23609;DHT22;11982;50.810;4.442;2023-04-24T09:10:46;10.90;99.90
23609;DHT22;11982;50.810;4.442;2023-04-24T09:13:12;11.10;99.90
23609;DHT22;11982;50.810;4.442;2023-04-24T09:15:39;11.20;99.90
23609;DHT22;11982;50.810;4.442;2023-04-24T09:18:05;11.10;99.90
23609;DHT22;11982;50.810;4.442;2023-04-24T09:20:32;11.00;99.90
23609;DHT22;11982;50.810;4.442;2023-04-24T09:22:58;10.90;99.90
23609;DHT22;11982;50.810;4.442;2023-04-24T09:25:34;11.10;99.90
23609;DHT22;11982;50.810;4.442;2023-04-24T09:28:02;11.20;99.90
23609;DHT22;11982;50.810;4.442;2023-04-24T09:30:29;11.30;99.90
23609;DHT22;11982;50.810;4.442;2023-04-24T09:33:14;11.20;99.90
23609;DHT22;11982;50.810;4.442;2023-04-24T09:35:42;11.00;99.90
23609;DHT22;11982;50.810;4.442;2023-04-24T09:38:08;10.90;99.90
23609;DHT22;11982;50.810;4.442;2023-04-24T09:40:35;10.70;99.90
23609;DHT22;11982;50.810;4.442;2023-04-24T09:43:01;10.60;99.90
23609;DHT22;11982;50.810;4.442;2023-04-24T09:45:38;10.70;99.90
23609;DHT22;11982;50.810;4.442;2023-04-24T09:48:05;10.90;99.90
23609;DHT22;11982;50.810;4.442;2023-04-24T09:50:32;11.40;99.90
23609;DHT22;11982;50.810;4.442;2023-04-24T09:53:07;11.50;99.90
23609;DHT22;11982;50.810;4.442;2023-04-24T09:55:42;11.70;99.90
23609;DHT22;11982;50.810;4.442;2023-04-24T09:58:10;11.50;99.90
23609;DHT22;11982;50.810;4.442;2023-04-24T10:00:36;11.40;99.90
23609;DHT22;11982;50.810;4.442;2023-04-24T10:03:03;10.90;99.90
23609;DHT22;11982;50.810;4.442;2023-04-24T10:05:33;10.80;99.90
23609;DHT22;11982;50.810;4.442;2023-04-24T10:08:11;10.80;99.90
23609;DHT22;11982;50.810;4.442;2023-04-24T10:10:42;11.00;99.90
23609;DHT22;11982;50.810;4.442;2023-04-24T10:13:12;11.20;99.90
23609;DHT22;11982;50.810;4.442;2023-04-24T10:15:39;11.40;99.90
23609;DHT22;11982;50.810;4.442;2023-04-24T10:18:06;11.40;99.90
23609;DHT22;11982;50.810;4.442;2023-04-24T10:20:33;11.50;99.90
23609;DHT22;11982;50.810;4.442;2023-04-24T10:22:59;11.40;99.90
23609;DHT22;11982;50.810;4.442;2023-04-24T10:25:28;11.50;99.90
23609;DHT22;11982;50.810;4.442;2023-04-24T10:27:54;11.60;99.90
23609;DHT22;11982;50.810;4.442;2023-04-24T10:30:26;11.70;99.90
23609;DHT22;11982;50.810;4.442;2023-04-24T10:32:52;11.60;99.90
23609;DHT22;11982;50.810;4.442;2023-04-24T10:35:18;11.60;99.90
23609;DHT22;11982;50.810;4.442;2023-04-24T10:38:11;11.40;99.90
23609;DHT22;11982;50.810;4.442;2023-04-24T10:40:38;11.10;99.90
23609;DHT22;11982;50.810;4.442;2023-04-24T10:43:05;11.20;99.90
23609;DHT22;11982;50.810;4.442;2023-04-24T10:45:35;11.20;99.90
23609;DHT22;11982;50.810;4.442;2023-04-24T10:48:04;11.30;99.90
23609;DHT22;11982;50.810;4.442;2023-04-24T10:50:46;11.40;99.90
23609;DHT22;11982;50.810;4.442;2023-04-24T10:53:17;11.50;99.90
23609;DHT22;11982;50.810;4.442;2023-04-24T10:55:51;11.70;99.90
23609;DHT22;11982;50.810;4.442;2023-04-24T10:58:22;12.00;99.90
23609;DHT22;11982;50.810;4.442;2023-04-24T11:00:59;12.30;99.90
23609;DHT22;11982;50.810;4.442;2023-04-24T11:03:30;12.10;99.90
23609;DHT22;11982;50.810;4.442;2023-04-24T11:08:43;12.00;99.90
23609;DHT22;11982;50.810;4.442;2023-04-24T11:11:14;12.10;99.90
23609;DHT22;11982;50.810;4.442;2023-04-24T11:16:26;12.30;99.90
23609;DHT22;11982;50.810;4.442;2023-04-24T11:19:22;12.30;99.90
23609;DHT22;11982;50.810;4.442;2023-04-24T11:22:04;12.40;99.90
23609;DHT22;11982;50.810;4.442;2023-04-24T11:24:39;12.40;99.90
23609;DHT22;11982;50.810;4.442;2023-04-24T11:27:19;12.20;99.90
23609;DHT22;11982;50.810;4.442;2023-04-24T11:32:26;12.30;99.90
23609;DHT22;11982;50.810;4.442;2023-04-24T11:37:27;12.80;99.90
23609;DHT22;11982;50.810;4.442;2023-04-24T11:39:57;12.70;99.90
23609;DHT22;11982;50.810;4.442;2023-04-24T11:42:23;12.80;99.90
23609;DHT22;11982;50.810;4.442;2023-04-24T11:44:51;13.10;99.90
23609;DHT22;11982;50.810;4.442;2023-04-24T11:47:17;13.20;99.90
23609;DHT22;11982;50.810;4.442;2023-04-24T11:49:42;13.10;99.90
23609;DHT22;11982;50.810;4.442;2023-04-24T11:52:08;13.20;99.90
23609;DHT22;11982;50.810;4.442;2023-04-24T11:54:34;12.70;99.90
23609;DHT22;11982;50.810;4.442;2023-04-24T11:57:04;12.50;99.90
23609;DHT22;11982;50.810;4.442;2023-04-24T11:59:35;12.50;99.90
23609;DHT22;11982;50.810;4.442;2023-04-24T12:02:02;12.80;99.90
23609;DHT22;11982;50.810;4.442;2023-04-24T12:04:38;12.70;99.90
23609;DHT22;11982;50.810;4.442;2023-04-24T12:07:05;12.80;99.90
23609;DHT22;11982;50.810;4.442;2023-04-24T12:09:45;12.80;99.90
23609;DHT22;11982;50.810;4.442;2023-04-24T12:12:12;12.40;99.90
23609;DHT22;11982;50.810;4.442;2023-04-24T12:14:54;12.80;99.90
23609;DHT22;11982;50.810;4.442;2023-04-24T12:17:29;12.60;99.90
23609;DHT22;11982;50.810;4.442;2023-04-24T12:20:03;12.50;99.90
23609;DHT22;11982;50.810;4.442;2023-04-24T12:22:50;12.60;99.90
23609;DHT22;11982;50.810;4.442;2023-04-24T12:25:17;12.90;99.90
23609;DHT22;11982;50.810;4.442;2023-04-24T12:27:44;13.10;99.90
23609;DHT22;11982;50.810;4.442;2023-04-24T12:30:13;13.40;99.90
23609;DHT22;11982;50.810;4.442;2023-04-24T12:32:47;13.50;99.90
23609;DHT22;11982;50.810;4.442;2023-04-24T12:35:14;13.40;99.90
23609;DHT22;11982;50.810;4.442;2023-04-24T12:37:42;12.90;99.90
23609;DHT22;11982;50.810;4.442;2023-04-24T12:40:10;12.80;99.90
23609;DHT22;11982;50.810;4.442;2023-04-24T12:42:43;13.00;99.90
23609;DHT22;11982;50.810;4.442;2023-04-24T12:45:09;12.90;99.90
23609;DHT22;11982;50.810;4.442;2023-04-24T12:47:37;12.70;99.90
23609;DHT22;11982;50.810;4.442;2023-04-24T12:50:04;12.50;99.90
23609;DHT22;11982;50.810;4.442;2023-04-24T12:52:30;12.50;99.90
23609;DHT22;11982;50.810;4.442;2023-04-24T12:54:58;12.50;99.90
23609;DHT22;11982;50.810;4.442;2023-04-24T12:57:25;12.60;99.90
23609;DHT22;11982;50.810;4.442;2023-04-24T12:59:54;13.00;99.90
23609;DHT22;11982;50.810;4.442;2023-04-24T13:02:21;13.20;99.90
23609;DHT22;11982;50.810;4.442;2023-04-24T13:04:48;13.80;99.90
23609;DHT22;11982;50.810;4.442;2023-04-24T13:07:14;13.80;99.90
23609;DHT22;11982;50.810;4.442;2023-04-24T13:09:41;13.70;99.90
23609;DHT22;11982;50.810;4.442;2023-04-24T13:12:07;13.50;99.90
23609;DHT22;11982;50.810;4.442;2023-04-24T13:14:33;13.50;99.90
23609;DHT22;11982;50.810;4.442;2023-04-24T13:16:59;13.50;99.90
23609;DHT22;11982;50.810;4.442;2023-04-24T13:19:27;13.20;99.90
23609;DHT22;11982;50.810;4.442;2023-04-24T13:21:56;13.00;99.90
23609;DHT22;11982;50.810;4.442;2023-04-24T13:24:25;12.90;99.90
23609;DHT22;11982;50.810;4.442;2023-04-24T13:26:54;12.80;99.90
23609;DHT22;11982;50.810;4.442;2023-04-24T13:29:22;12.70;99.90
23609;DHT22;11982;50.810;4.442;2023-04-24T13:31:50;12.80;99.90
23609;DHT22;11982;50.810;4.442;2023-04-24T13:34:16;13.20;99.90
23609;DHT22;11982;50.810;4.442;2023-04-24T13:36:42;13.80;99.90
23609;DHT22;11982;50.810;4.442;2023-04-24T13:39:07;14.10;99.90
23609;DHT22;11982;50.810;4.442;2023-04-24T13:41:34;14.10;99.90
23609;DHT22;11982;50.810;4.442;2023-04-24T13:44:01;14.30;99.90
23609;DHT22;11982;50.810;4.442;2023-04-24T13:46:26;14.50;99.90
23609;DHT22;11982;50.810;4.442;2023-04-24T13:48:52;14.30;99.90
23609;DHT22;11982;50.810;4.442;2023-04-24T13:51:18;13.80;99.90
23609;DHT22;11982;50.810;4.442;2023-04-24T13:53:43;13.60;99.90
23609;DHT22;11982;50.810;4.442;2023-04-24T13:56:09;13.40;99.90
23609;DHT22;11982;50.810;4.442;2023-04-24T13:58:35;13.40;99.90
23609;DHT22;11982;50.810;4.442;2023-04-24T14:01:04;13.30;99.90
23609;DHT22;11982;50.810;4.442;2023-04-24T14:03:30;13.30;99.90
23609;DHT22;11982;50.810;4.442;2023-04-24T14:05:56;13.50;99.90
23609;DHT22;11982;50.810;4.442;2023-04-24T14:08:22;13.30;99.90
23609;DHT22;11982;50.810;4.442;2023-04-24T14:10:47;13.70;99.90
23609;DHT22;11982;50.810;4.442;2023-04-24T14:13:13;13.40;99.90
23609;DHT22;11982;50.810;4.442;2023-04-24T14:15:39;13.50;99.90
23609;DHT22;11982;50.810;4.442;2023-04-24T14:18:05;13.60;99.90
23609;DHT22;11982;50.810;4.442;2023-04-24T14:20:30;13.50;99.90
23609;DHT22;11982;50.810;4.442;2023-04-24T14:22:56;13.40;99.90
23609;DHT22;11982;50.810;4.442;2023-04-24T14:25:24;13.30;99.90
23609;DHT22;11982;50.810;4.442;2023-04-24T14:27:50;13.10;99.90
23609;DHT22;11982;50.810;4.442;2023-04-24T14:30:16;13.20;99.90
23609;DHT22;11982;50.810;4.442;2023-04-24T14:32:42;13.10;99.90
23609;DHT22;11982;50.810;4.442;2023-04-24T14:35:08;12.90;99.90
23609;DHT22;11982;50.810;4.442;2023-04-24T14:37:34;12.80;99.90
23609;DHT22;11982;50.810;4.442;2023-04-24T14:40:01;12.80;99.90
23609;DHT22;11982;50.810;4.442;2023-04-24T14:42:27;12.60;99.90
23609;DHT22;11982;50.810;4.442;2023-04-24T14:44:54;12.70;99.90
23609;DHT22;11982;50.810;4.442;2023-04-24T14:47:20;12.90;99.90
23609;DHT22;11982;50.810;4.442;2023-04-24T14:49:50;12.70;99.90
23609;DHT22;11982;50.810;4.442;2023-04-24T14:52:19;12.50;99.90
23609;DHT22;11982;50.810;4.442;2023-04-24T14:54:45;12.40;99.90
23609;DHT22;11982;50.810;4.442;2023-04-24T14:57:11;12.40;99.90
23609;DHT22;11982;50.810;4.442;2023-04-24T14:59:36;12.50;99.90
23609;DHT22;11982;50.810;4.442;2023-04-24T15:02:02;12.60;99.90
23609;DHT22;11982;50.810;4.442;2023-04-24T15:04:28;12.50;99.90
23609;DHT22;11982;50.810;4.442;2023-04-24T15:06:55;12.50;99.90
23609;DHT22;11982;50.810;4.442;2023-04-24T15:09:24;12.70;99.90
23609;DHT22;11982;50.810;4.442;2023-04-24T15:11:51;12.80;99.90
23609;DHT22;11982;50.810;4.442;2023-04-24T15:14:17;12.90;99.90
23609;DHT22;11982;50.810;4.442;2023-04-24T15:16:43;12.90;99.90
23609;DHT22;11982;50.810;4.442;2023-04-24T15:19:09;13.00;99.90
23609;DHT22;11982;50.810;4.442;2023-04-24T15:21:36;13.20;99.90
23609;DHT22;11982;50.810;4.442;2023-04-24T15:24:02;13.00;99.90
23609;DHT22;11982;50.810;4.442;2023-04-24T15:26:28;13.00;99.90
23609;DHT22;11982;50.810;4.442;2023-04-24T15:28:54;12.70;99.90
23609;DHT22;11982;50.810;4.442;2023-04-24T15:31:19;12.50;99.90
23609;DHT22;11982;50.810;4.442;2023-04-24T15:33:45;12.60;99.90
23609;DHT22;11982;50.810;4.442;2023-04-24T15:36:11;12.60;99.90
23609;DHT22;11982;50.810;4.442;2023-04-24T15:38:37;12.60;99.90
23609;DHT22;11982;50.810;4.442;2023-04-24T15:41:03;12.70;99.90
23609;DHT22;11982;50.810;4.442;2023-04-24T15:43:28;12.70;99.90
23609;DHT22;11982;50.810;4.442;2023-04-24T15:45:56;12.70;99.90
23609;DHT22;11982;50.810;4.442;2023-04-24T15:48:22;12.70;99.90